Auance, South Dakota
Current Conditions -  °F | °C
As of 1:55 AM on Friday 19 Dec 2014 (Local Time) from KPHP Reporting Station
Clear Clear  
Wind Chill:   Ceiling: Unl
Heat Index: 15°   Visibility: 10mi
Dew Point: 10°   Wind: 5mph
Humidity: 80%   Direction: 290°WNW
Pressure: 30.02"   Gusts: NA
Location:  44.8511°N, 102.128°W
Report Text: KPHP 190855Z AUTO 29004KT 10SM CLR M09/M12 A3002 RMK AO2 SLP194 T10941122 55007
Loading
Personal Weather Stations






























Interactive Weather Map New forecast layout! Learn more

10-Day Weather Forecast

Advertisements
Track Severe Weather on mobile